• Join FlightAware (Why Join?)
  • Login
  • US Flag 
Gobble Gobble! 
09:40AM EST


 

Airport Tracker/Info


-or-


 

Live Flight TrackerFlight Track Log ✈ DAL61 ✈ 04-Jul-2013 ✈ KATL - SBGL / GIG

Flight Track Log - Related Links

Times and Time Zones

All times are in EDT time to prevent confusion due to time zone crossing. See the DAL61 flight status page for this flight to view local times or setup timezone preferences in your user account.

Time Position Orientation Groundspeed Altitude Reporting Facility
EDT Latitude Longitude Course Direction KTS MPH feet Rate Location/Type
10:10PM 33.6380 -84.4270 North 12 14  Level FlightAware
10:10PM 33.6380 -84.4280 270° West 13 15 60 Level FlightAware
10:13PM 33.4838 -84.2667 180° South  Level FlightAware Approximate
10:14PM 33.3697 -84.2530 140° Southeast  Level FlightAware Approximate
10:14PM 33.6370 -84.4280 140° Southeast 21 24  Level FlightAware
10:14PM 33.6360 -84.4290 220° Southwest 21 24 120 Level FlightAware
10:15PM 33.6360 -84.4300 270° West 11 13 120 Level FlightAware
10:16PM 33.6360 -84.4310 270° West 26 30 120 Level FlightAware
10:17PM 33.6360 -84.4340 270° West 29 33 180 Level FlightAware
10:18PM 33.6360 -84.4400 270° West 17 20 180 Level FlightAware
10:19PM 33.6350 -84.4440 253° West 27 31 300 Level FlightAware
10:20PM 33.6380 -84.4430 16° North 27 31 360 Level FlightAware
10:20PM 33.6350 -84.4480 234° Southwest 34 39 420 Level FlightAware
10:21PM 33.6340 -84.4490 220° Southwest 24 28 600 Level FlightAware
10:21PM 33.6340 -84.4470 90° East 50 58 960 Level FlightAware
10:22PM 33.6330 -84.4320 95° East 150 173 1,260 Level FlightAware
10:22PM 33.6340 -84.4020 88° East 187 215 1,200 2,220 Climbing FlightAware
10:23PM 33.6290 -84.3730 102° East 185 213 2,200 1,560 Climbing FlightAware
10:23PM 33.6210 -84.3510 114° Southeast 211 243 2,500 1,020 Climbing FlightAware
10:24PM 33.6110 -84.3160 109° East 236 272 3,100 1,380 Climbing FlightAware
10:24PM 33.5960 -84.2810 117° Southeast 244 281 3,900 1,680 Climbing FlightAware
10:24PM 33.5830 -84.2670 138° Southeast 243 280 4,400 2,160 Climbing FlightAware
10:25PM 33.5540 -84.2480 151° Southeast 247 284 5,500 2,340 Climbing FlightAware
10:25PM 33.5250 -84.2310 154° Southeast 248 285 6,600 2,220 Climbing FlightAware
10:26PM 33.4980 -84.2150 154° Southeast 255 293 7,500 2,400 Climbing FlightAware
10:26PM 33.4800 -84.2050 155° Southeast 250 288 8,300 2,700 Climbing FlightAware
10:26PM 33.4520 -84.1890 155° Southeast 247 284 9,500 2,100 Climbing FlightAware
10:27PM 33.4140 -84.1670 154° Southeast 261 300 10,600 1,140 Climbing FlightAware
10:28PM 33.3660 -84.1400 155° Southeast 305 351 11,000 900 Climbing FlightAware
10:28PM 33.3160 -84.1010 147° Southeast 329 379 11,800 1,740 Climbing FlightAware
10:29PM 33.2620 -84.0590 147° Southeast 332 382 13,400 2,040 Climbing FlightAware
10:30PM 33.2140 -84.0240 149° Southeast 340 391 14,500 1,740 Climbing FlightAware
10:30PM 33.1580 -83.9800 147° Southeast 350 403 15,700 1,680 Climbing FlightAware
10:31PM 33.1030 -83.9390 148° Southeast 358 412 16,800 1,560 Climbing FlightAware
10:32PM 33.0420 -83.8920 147° Southeast 370 426 17,900 1,200 Climbing FlightAware
10:32PM 32.9790 -83.8430 147° Southeast 391 450 18,600 1,560 Climbing FlightAware
10:33PM 32.9140 -83.7920 147° Southeast 383 441 20,200 1,680 Climbing FlightAware
10:34PM 32.8530 -83.7450 147° Southeast 396 456 21,000 840 Climbing FlightAware
10:34PM 32.7980 -83.7040 148° Southeast 416 479 21,300 600 Climbing FlightAware
10:35PM 32.7230 -83.6450 146° Southeast 435 501 21,800 900 Climbing FlightAware
10:36PM 32.6550 -83.5930 147° Southeast 442 509 22,600 720 Climbing FlightAware
10:37PM 32.5850 -83.5380 146° Southeast 446 513 22,900 180 Climbing FlightAware
10:37PM 32.5150 -83.4820 146° Southeast 446 513 22,900 1,320 Level FlightAware
10:38PM 32.4200 -83.4120 148° Southeast 468 539 24,800 1,680 Climbing FlightAware
10:39PM 32.3600 -83.3660 147° Southeast 468 539 25,000 120 Climbing FlightAware
10:39PM 32.2860 -83.3090 147° Southeast 468 539 25,000  Level FlightAware
10:40PM 32.2310 -83.2670 147° Southeast 468 539 25,000  Level FlightAware
10:41PM 32.1560 -83.2100 147° Southeast 468 539 25,000  Level FlightAware
10:41PM 32.0990 -83.1660 147° Southeast 468 539 25,000  Level FlightAware
10:42PM 32.0440 -83.1230 146° Southeast 468 539 25,000 2,940 Level FlightAware
10:43PM 31.8681 -82.9856 146° Southeast 471 542 30,000 2,340 Climbing Jacksonville Center
10:44PM 31.7572 -82.9022 147° Southeast 471 542 30,000  Level Jacksonville Center
10:45PM 31.6569 -82.8047 140° Southeast 471 542 30,000  Level Jacksonville Center
10:46PM 31.5631 -82.7047 138° Southeast 466 536 30,000  Level Jacksonville Center
10:47PM 31.4625 -82.6053 140° Southeast 466 536 30,000  Level Jacksonville Center
10:48PM 31.3642 -82.5008 138° Southeast 471 542 30,000  Level Jacksonville Center
10:49PM 31.2742 -82.4114 140° Southeast 471 542 30,000 -60 Level Jacksonville Center
10:50PM 31.1775 -82.3097 138° Southeast 471 542 29,900 120 Descending Jacksonville Center
10:55PM 30.6580 -81.7550 138° Southeast 479 551 30,900 240 Climbing FlightAware
10:56PM 30.5950 -81.6890 138° Southeast 477 549 31,500 780 Climbing FlightAware
10:57PM 30.5180 -81.6090 138° Southeast 474 545 32,000 300 Climbing FlightAware
10:58PM 30.4350 -81.5220 138° Southeast 477 549 32,000  Level FlightAware
10:58PM 30.3800 -81.4650 138° Southeast 479 551 32,000  Level FlightAware
10:59PM 30.3110 -81.3930 138° Southeast 480 552 32,000  Level FlightAware
11:00PM 30.2450 -81.3250 138° Southeast 481 554 32,000  Level FlightAware
11:00PM 30.1790 -81.2560 138° Southeast 482 555 32,000  Level FlightAware
11:01PM 30.1100 -81.1840 138° Southeast 482 555 32,000  Level FlightAware
11:02PM 30.0430 -81.1150 138° Southeast 484 557 32,000  Level FlightAware
11:02PM 29.9890 -81.0590 138° Southeast 484 557 32,000  Level FlightAware
11:03PM 29.9210 -80.9880 138° Southeast 484 557 32,000  Level FlightAware
11:04PM 29.8700 -80.9350 138° Southeast 484 557 32,000  Level FlightAware
11:05PM 29.8010 -80.8640 138° Southeast 484 557 32,000  Level FlightAware
11:05PM 29.7500 -80.8110 138° Southeast 484 557 32,000  Level FlightAware
11:06PM 29.6820 -80.7400 138° Southeast 484 557 32,000  Level FlightAware
11:07PM 29.6310 -80.6880 138° Southeast 484 557 32,000  Level FlightAware
11:07PM 29.5800 -80.6350 138° Southeast 484 557 32,000  Level FlightAware
11:08PM 29.5120 -80.5650 138° Southeast 484 557 32,000  Level FlightAware
11:09PM 29.4610 -80.5120 138° Southeast 484 557 32,000  Level FlightAware
11:09PM 29.3930 -80.4420 138° Southeast 484 557 32,000  Level FlightAware
11:10PM 29.2990 -80.1330 109° East 479 551 32,000  Level FlightAware
11:11PM 29.2700 -80.0880 126° Southeast 479 551 32,000  Level FlightAware
11:11PM 29.2020 -79.9860 127° Southeast 474 545 32,000  Level FlightAware
11:12PM 29.1380 -79.8880 127° Southeast 465 535 32,000  Level FlightAware
11:13PM 29.0860 -79.8070 126° Southeast 465 535 32,000  Level FlightAware
11:14PM 29.0480 -79.7460 125° Southeast 465 535 32,000  Level FlightAware
11:17PM 28.7260 -79.2780 128° Southeast 460 529 32,000  Level FlightAware
11:18PM 28.6750 -79.2010 127° Southeast 461 531 32,000  Level FlightAware
11:19PM 28.6230 -79.1220 127° Southeast 461 531 32,000  Level FlightAware
11:20PM 28.5550 -79.0270 129° Southeast 459 528 32,000  Level FlightAware
11:20PM 28.5130 -78.9630 127° Southeast 459 528 32,000  Level FlightAware
11:21PM 28.4520 -78.8780 129° Southeast 451 519 32,000  Level FlightAware
11:22PM 28.3920 -78.7890 127° Southeast 450 518 32,000  Level FlightAware
11:22PM 28.3450 -78.7210 128° Southeast 449 517 32,000  Level FlightAware
11:23PM 28.3040 -78.6610 128° Southeast 449 517 32,000  Level FlightAware
11:24PM 28.2650 -78.6040 128° Southeast 449 517 32,000  Level FlightAware
11:24PM 28.2110 -78.5270 129° Southeast 449 517 32,000  Level FlightAware
11:25PM 28.1720 -78.4700 128° Southeast 449 517 32,000  Level FlightAware
11:26PM 28.0860 -78.3490 129° Southeast 441 507 32,000  Level FlightAware
11:26PM 28.0470 -78.2920 128° Southeast 441 507 32,000  Level FlightAware
11:27PM 27.9860 -78.2060 129° Southeast 439 505 32,000  Level FlightAware
11:28PM 27.9060 -78.0910 128° Southeast 439 505 32,000  Level FlightAware
11:29PM 27.8680 -78.0350 128° Southeast 439 505 32,000  Level FlightAware
11:30PM 27.8160 -77.9600 128° Southeast 439 505 32,000  Level FlightAware
11:30PM 27.7770 -77.9040 128° Southeast 439 505 32,000  Level FlightAware
11:31PM 27.7410 -77.8520 128° Southeast 439 505 32,000  Level FlightAware
11:32PM 27.6900 -77.7780 128° Southeast 439 505 32,000  Level FlightAware
11:32PM 27.6520 -77.7230 128° Southeast 439 505 32,000  Level FlightAware
11:33PM 27.6140 -77.6680 128° Southeast 439 505 32,000  Level FlightAware
11:34PM 27.5630 -77.5940 128° Southeast 439 505 32,000  Level FlightAware
11:34PM 27.5230 -77.5370 128° Southeast 439 505 32,000  Level FlightAware
11:35PM 27.4720 -77.4640 128° Southeast 439 505 32,000  Level FlightAware
11:36PM 27.4340 -77.4090 128° Southeast 439 505 32,000  Level FlightAware
11:36PM 27.3820 -77.3340 128° Southeast 439 505 32,000  Level FlightAware
11:37PM 27.3440 -77.2780 127° Southeast 439 505 32,000  Level FlightAware
11:38PM 27.1789 -77.1481 127° Southeast 432 497 32,000  Level Miami Center
11:39PM 27.1039 -77.0431 129° Southeast 427 491 32,000  Level Miami Center
11:40PM 27.0308 -76.9497 131° Southeast 421 484 32,000  Level Miami Center
11:41PM 26.9536 -76.8353 127° Southeast 431 496 32,000  Level Miami Center
11:42PM 26.8783 -76.7306 129° Southeast 423 487 32,000  Level Miami Center
11:43PM 26.8072 -76.6353 130° Southeast 427 491 32,000  Level Miami Center
11:44PM 26.7294 -76.5283 129° Southeast 422 486 32,000  Level Miami Center
11:45PM 26.6561 -76.4286 129° Southeast 428 493 32,000 -540 Level Miami Center
11:46PM 26.5744 -76.3172 129° Southeast 433 498 31,000 -540 Descending Miami Center
11:47PM 26.5028 -76.2203 130° Southeast 423 487 31,000  Level Miami Center
11:48PM 26.4250 -76.1139 129° Southeast 429 494 31,000  Level Miami Center
11:49PM 26.3492 -76.0122 130° Southeast 435 501 31,000  Level Miami Center
11:50PM 26.2714 -75.9086 130° Southeast 428 493 31,000  Level Miami Center
11:51PM 26.1869 -75.7933 129° Southeast 428 493 31,000  Level Miami Center
11:52PM 26.1089 -75.6900 130° Southeast 428 493 31,000  Level Miami Center
11:53PM 26.0350 -75.5889 129° Southeast 437 503 31,000  Level Miami Center
11:54PM 25.9608 -75.4881 129° Southeast 427 491 31,000  Level Miami Center
11:55PM 25.8803 -75.3828 130° Southeast 427 491 31,000  Level Miami Center
11:56PM 25.7936 -75.2753 132° Southeast 432 497 31,000  Level Miami Center
11:57PM 25.7194 -75.1794 131° Southeast 432 497 31,000  Level Miami Center
11:58PM 25.6408 -75.0769 130° Southeast 433 498 31,000  Level Miami Center
11:59PM 25.5622 -74.9744 130° Southeast 439 505 31,000  Level Miami Center
12:00AM 25.4836 -74.8675 129° Southeast 439 505 31,000  Level Miami Center
12:01AM 25.4047 -74.7631 130° Southeast 439 505 31,000  Level Miami Center
12:02AM 25.3258 -74.6608 130° Southeast 439 505 31,000  Level Miami Center
12:03AM 25.2492 -74.5567 129° Southeast 440 506 31,000  Level Miami Center
12:04AM 25.1703 -74.4547 131° Southeast 437 503 31,000  Level Miami Center
12:05AM 25.0911 -74.3531 131° Southeast 437 503 31,000  Level Miami Center
12:06AM 25.0119 -74.2492 130° Southeast 442 509 31,000  Level Miami Center
12:07AM 24.9308 -74.1433 130° Southeast 440 506 31,000  Level Miami Center
12:08AM 24.8494 -74.0419 131° Southeast 440 506 31,000  Level Miami Center
12:09AM 24.7872 -73.9589 130° Southeast 445 512 31,000  Level Miami Center
12:10AM 24.7036 -73.8508 130° Southeast 440 506 31,000  Level Miami Center
12:11AM 24.6219 -73.7478 131° Southeast 440 506 31,000  Level Miami Center
12:12AM 24.5406 -73.6425 130° Southeast 440 506 31,000  Level Miami Center
12:13AM 24.4608 -73.5419 131° Southeast 446 513 31,000  Level Miami Center
12:14AM 24.3833 -73.4414 130° Southeast 446 513 31,000  Level Miami Center
12:15AM 24.2994 -73.3389 132° Southeast 446 513 31,000  Level Miami Center
12:16AM 24.2303 -73.2383 127° Southeast 440 506 31,000  Level Miami Center
12:17AM 24.1378 -73.1339 134° Southeast 453 521 31,000  Level Miami Center
12:18AM 24.0622 -73.0339 130° Southeast 448 516 31,000  Level Miami Center
12:19AM 23.9864 -72.9339 130° Southeast 443 510 31,000  Level Miami Center
12:20AM 23.8939 -72.8278 134° Southeast 450 518 31,000  Level Miami Center
12:21AM 23.8158 -72.7281 131° Southeast 450 518 31,000  Level Miami Center
12:22AM 23.7292 -72.6106 129° Southeast 450 518 31,000  Level Miami Center
12:23AM 23.6447 -72.5114 133° Southeast 450 518 31,000  Level Miami Center
12:24AM 23.5644 -72.4100 131° Southeast 455 524 31,000  Level Miami Center
12:25AM 23.4819 -72.3064 131° Southeast 455 524 31,000  Level Miami Center
12:26AM 23.3997 -72.2056 132° Southeast 455 524 31,000  Level Miami Center
12:27AM 23.3169 -72.1022 131° Southeast 450 518 31,000  Level Miami Center
12:28AM 23.2325 -72.0014 132° Southeast 450 518 31,000  Level Miami Center
12:29AM 23.1517 -71.8961 130° Southeast 450 518 31,000  Level Miami Center
12:30AM 23.0669 -71.7978 133° Southeast 450 518 31,000  Level Miami Center
12:31AM 22.9861 -71.6906 129° Southeast 455 524 31,000  Level Miami Center
12:32AM 22.9011 -71.5903 133° Southeast 455 524 31,000  Level Miami Center
12:33AM 22.8183 -71.4878 131° Southeast 455 524 31,000  Level Miami Center
12:34AM 22.7333 -71.3856 132° Southeast 455 524 31,000  Level Miami Center
12:35AM 22.6503 -71.2858 132° Southeast 455 524 31,000  Level Miami Center
12:36AM 22.5650 -71.1814 131° Southeast 455 524 31,000  Level Miami Center
12:37AM 22.4797 -71.0775 132° Southeast 455 524 31,000  Level Miami Center
12:38AM 22.3964 -70.9756 131° Southeast 455 524 31,000  Level Miami Center
12:39AM 22.3306 -70.8933 131° Southeast 455 524 31,000  Level Miami Center
12:40AM 22.2278 -70.7703 132° Southeast 455 524 31,000  Level Miami Center
12:41AM 22.1422 -70.6692 132° Southeast 455 524 31,000  Level Miami Center
12:42AM 22.0567 -70.5636 131° Southeast 455 524 31,000  Level Miami Center
12:43AM 21.9711 -70.4625 132° Southeast 455 524 31,000  Level Miami Center
12:44AM 21.8856 -70.3617 132° Southeast 455 524 31,000  Level Miami Center
12:45AM 21.8017 -70.2586 131° Southeast 455 524 31,000  Level Miami Center
12:46AM 21.7139 -70.1558 133° Southeast 455 524 31,000  Level Miami Center
12:47AM 21.6392 -70.0681 132° Southeast 455 524 31,000  Level Miami Center
12:48AM 21.5531 -69.9633 131° Southeast 455 524 31,000  Level Miami Center
12:49AM 21.4672 -69.8608 132° Southeast 455 524 31,000  Level Miami Center
12:50AM 21.3833 -69.7606 132° Southeast 455 524 31,000  Level Miami Center
12:51AM 21.2956 -69.6608 133° Southeast 455 524 31,000  Level Miami Center
12:52AM 21.2114 -69.5564 131° Southeast 455 524 31,000  Level Miami Center
12:58AM 20.7630 -68.9150 131° Southeast 460 529 31,000  Level FlightAware
12:58AM 20.7040 -68.8450 132° Southeast 460 529 31,000  Level FlightAware
12:59AM 20.6200 -68.7880 148° Southeast 461 531 31,000  Level FlightAware
01:00AM 20.5330 -68.7090 140° Southeast 461 531 31,000  Level FlightAware
01:01AM 20.4530 -68.6360 139° Southeast 461 531 31,000  Level FlightAware
01:02AM 20.3710 -68.5600 139° Southeast 461 531 31,000  Level FlightAware
01:02AM 20.2860 -68.4880 142° Southeast 462 532 31,000  Level FlightAware
01:03AM 20.2270 -68.4370 141° Southeast 461 531 31,000  Level FlightAware
01:04AM 20.1580 -68.3770 141° Southeast 463 533 31,000  Level FlightAware
01:04AM 20.0880 -68.3160 141° Southeast 462 532 31,000  Level FlightAware
01:05AM 20.0300 -68.2660 141° Southeast 463 533 31,000  Level FlightAware
01:06AM 19.9610 -68.2060 141° Southeast 462 532 31,000  Level FlightAware
01:06AM 19.8910 -68.1450 141° Southeast 462 532 31,000  Level FlightAware
01:07AM 19.8240 -68.0880 141° Southeast 461 531 31,000  Level FlightAware
01:08AM 19.7690 -68.0410 141° Southeast 461 531 31,000  Level FlightAware
01:08AM 19.6960 -67.9770 140° Southeast 461 531 31,000  Level FlightAware
01:09AM 19.6260 -67.9180 142° Southeast 462 532 31,000  Level FlightAware
01:10AM 19.5560 -67.8570 141° Southeast 461 531 31,000  Level FlightAware
01:10AM 19.4890 -67.8000 141° Southeast 461 531 31,000  Level FlightAware
01:11AM 19.4170 -67.7380 141° Southeast 461 531 31,000  Level FlightAware
01:12AM 19.3490 -67.6800 141° Southeast 460 529 31,000  Level FlightAware
01:12AM 19.2900 -67.6300 141° Southeast 460 529 31,000  Level FlightAware
01:13AM 19.2240 -67.5730 141° Southeast 460 529 31,000  Level FlightAware
01:14AM 19.1550 -67.5140 141° Southeast 460 529 31,000  Level FlightAware
01:14AM 19.0910 -67.4600 141° Southeast 459 528 31,000  Level FlightAware
01:15AM 19.0010 -67.3830 141° Southeast 460 529 31,000  Level FlightAware
01:16AM 18.9320 -67.3240 141° Southeast 461 531 31,000 300 Level FlightAware
01:17AM 18.8680 -67.2690 141° Southeast 460 529 31,400 780 Climbing FlightAware
01:17AM 18.7990 -67.2100 141° Southeast 460 529 32,100 900 Climbing FlightAware
01:18AM 18.7320 -67.1540 142° Southeast 460 529 32,700 660 Climbing FlightAware
01:19AM 18.6660 -67.0980 141° Southeast 461 531 33,000 180 Climbing FlightAware
01:19AM 18.5990 -67.0400 141° Southeast 459 528 33,000  Level FlightAware
01:20AM 18.5330 -66.9840 141° Southeast 458 527 33,000  Level FlightAware
01:21AM 18.4640 -66.9250 141° Southeast 458 527 33,000  Level FlightAware
01:21AM 18.3910 -66.8640 142° Southeast 458 527 33,000  Level FlightAware
01:22AM 18.3210 -66.8040 141° Southeast 457 526 33,000  Level FlightAware
01:23AM 18.2530 -66.7460 141° Southeast 457 526 33,000  Level FlightAware
01:24AM 18.1830 -66.6860 141° Southeast 457 526 33,000  Level FlightAware
01:24AM 18.1180 -66.6310 141° Southeast 457 526 33,000  Level FlightAware
01:25AM 18.0460 -66.5710 142° Southeast 458 527 33,000  Level FlightAware
01:26AM 17.9730 -66.5090 141° Southeast 458 527 33,000  Level FlightAware
01:26AM 17.9060 -66.4520 141° Southeast 459 528 33,000  Level FlightAware
01:27AM 17.8390 -66.3960 141° Southeast 460 529 33,000  Level FlightAware
01:28AM 17.7660 -66.3330 141° Southeast 460 529 33,000  Level FlightAware
01:28AM 17.6970 -66.2750 141° Southeast 461 531 33,000  Level FlightAware
01:29AM 17.6260 -66.2150 141° Southeast 462 532 33,000  Level FlightAware
01:30AM 17.5580 -66.1580 141° Southeast 462 532 33,000  Level FlightAware
01:30AM 17.5020 -66.1110 141° Southeast 463 533 33,000  Level FlightAware
01:31AM 17.4360 -66.0550 141° Southeast 463 533 33,000  Level FlightAware
01:32AM 17.3570 -65.9880 141° Southeast 464 534 33,000  Level FlightAware
01:32AM 17.2990 -65.9400 142° Southeast 464 534 33,000  Level FlightAware
01:33AM 17.2180 -65.8720 141° Southeast 464 534 33,000  Level FlightAware
01:34AM 17.1250 -65.7930 141° Southeast 465 535 33,000  Level FlightAware
01:35AM 17.0630 -65.7410 141° Southeast 465 535 33,000  Level FlightAware
01:36AM 16.9830 -65.6750 142° Southeast 466 536 33,000  Level FlightAware
01:36AM 16.9090 -65.6120 141° Southeast 468 539 33,000  Level FlightAware
01:37AM 16.8500 -65.5630 142° Southeast 476 548 33,000  Level FlightAware
01:38AM 16.7650 -65.4920 141° Southeast 483 556 33,000  Level FlightAware
01:38AM 16.6880 -65.4270 141° Southeast 484 557 33,000  Level FlightAware
01:39AM 16.6380 -65.3850 141° Southeast 484 557 33,000  Level FlightAware
01:40AM 16.5590 -65.3190 141° Southeast 483 556 33,000  Level FlightAware
01:40AM 16.4990 -65.2690 141° Southeast 482 555 33,000  Level FlightAware
01:41AM 16.4120 -65.1960 141° Southeast 483 556 33,000  Level FlightAware
01:42AM 16.3580 -65.1510 141° Southeast 482 555 33,000  Level FlightAware
01:42AM 16.2910 -65.0940 141° Southeast 482 555 33,000  Level FlightAware
01:43AM 16.2360 -65.0480 141° Southeast 482 555 33,000  Level FlightAware
01:44AM 16.1650 -64.9880 141° Southeast 482 555 33,000  Level FlightAware
01:44AM 16.1120 -64.9440 141° Southeast 482 555 33,000  Level FlightAware
01:45AM 16.0450 -64.8860 140° Southeast 482 555 33,000  Level FlightAware
01:46AM 15.9920 -64.8420 141° Southeast 482 555 33,000  Level FlightAware
01:47AM 15.9210 -64.7820 141° Southeast 482 555 33,000  Level FlightAware
01:47AM 15.8650 -64.7350 141° Southeast 482 555 33,000  Level FlightAware
01:48AM 15.7960 -64.6770 141° Southeast 482 555 33,000  Level FlightAware
01:49AM 15.7430 -64.6320 141° Southeast 482 555 33,000  Level FlightAware
01:49AM 15.6720 -64.5730 141° Southeast 482 555 33,000  Level FlightAware
01:50AM 15.6180 -64.5270 141° Southeast 482 555 33,000  Level FlightAware
01:51AM 15.5470 -64.4670 141° Southeast 482 555 33,000  Level FlightAware
01:56AM 15.0264 -64.1692 136° Southeast  Level Estimated
01:57AM 14.9160 -64.1063 151° Southeast  Level Estimated
01:58AM 14.8060 -64.0425 151° Southeast  Level FlightAware Approximate
01:59AM 14.6960 -63.9788 151° Southeast  Level FlightAware Approximate
02:00AM 14.5861 -63.9151 151° Southeast  Level FlightAware Approximate
02:01AM 14.4761 -63.8515 151° Southeast  Level FlightAware Approximate
02:02AM 14.3660 -63.7880 151° Southeast  Level FlightAware Approximate
02:03AM 14.2560 -63.7246 151° Southeast  Level FlightAware Approximate
02:04AM 14.1459 -63.6612 151° Southeast  Level FlightAware Approximate
02:05AM 14.0358 -63.5978 151° Southeast  Level FlightAware Approximate
02:06AM 13.9257 -63.5345 151° Southeast  Level FlightAware Approximate
02:07AM 13.8156 -63.4713 151° Southeast  Level FlightAware Approximate
02:08AM 13.7055 -63.4082 151° Southeast  Level FlightAware Approximate
02:09AM 13.5954 -63.3451 151° Southeast  Level FlightAware Approximate
02:10AM 13.4852 -63.2820 151° Southeast  Level FlightAware Approximate
02:11AM 13.3745 -63.2200 151° Southeast  Level Estimated
02:12AM 13.2639 -63.1579 151° Southeast  Level FlightAware Approximate
02:13AM 13.1533 -63.0958 151° Southeast  Level FlightAware Approximate
02:14AM 13.0426 -63.0338 151° Southeast  Level FlightAware Approximate
02:15AM 12.9319 -62.9719 151° Southeast  Level FlightAware Approximate
02:15AM 12.8860 -62.3430 151° Southeast 492 566 33,000  Level FlightAware
02:16AM 12.7990 -62.2750 143° Southeast 492 566 33,000  Level FlightAware
02:16AM 12.7440 -62.2310 142° Southeast 492 566 33,000  Level FlightAware
02:17AM 12.6710 -62.1720 142° Southeast 492 566 33,000  Level FlightAware
02:18AM 12.6150 -62.1270 142° Southeast 492 566 33,000  Level FlightAware
02:18AM 12.5600 -62.0830 142° Southeast 492 566 33,000  Level FlightAware
02:19AM 12.4880 -62.0260 142° Southeast 492 566 33,000  Level FlightAware
02:20AM 12.4330 -61.9820 142° Southeast 492 566 33,000  Level FlightAware
02:21AM 12.3600 -61.9240 142° Southeast 492 566 33,000  Level FlightAware
02:21AM 12.3050 -61.8800 142° Southeast 492 566 33,000  Level FlightAware
02:22AM 12.2490 -61.8350 142° Southeast 492 566 33,000  Level FlightAware
02:23AM 12.1760 -61.7760 142° Southeast 492 566 33,000  Level FlightAware
02:24AM 11.8590 -61.5490 145° Southeast 478 550 33,000  Level FlightAware
02:24AM 11.8050 -61.5080 143° Southeast 478 550 33,000  Level FlightAware
02:25AM 11.7330 -61.4520 143° Southeast 478 550 33,000  Level FlightAware
02:26AM 11.6790 -61.4110 143° Southeast 478 550 33,000  Level FlightAware
02:27AM 11.9170 -61.5950 323° Northwest 476 548 33,000  Level FlightAware
02:28AM 11.4750 -61.2560 143° Southeast 476 548 33,000  Level FlightAware
02:28AM 11.4210 -61.2150 143° Southeast 476 548 33,000  Level FlightAware
02:29AM 11.3680 -61.1730 142° Southeast 476 548 33,000  Level FlightAware
02:30AM 11.2790 -61.1060 144° Southeast 476 548 33,000  Level FlightAware
02:30AM 11.2250 -61.0640 143° Southeast 476 548 33,000  Level FlightAware
02:31AM 11.1700 -61.0220 143° Southeast 476 548 33,000  Level FlightAware
02:32AM 11.0970 -60.9650 143° Southeast 476 548 33,000  Level FlightAware
02:32AM 11.0430 -60.9240 143° Southeast 476 548 33,000  Level FlightAware
02:33AM 10.9520 -60.8540 143° Southeast 476 548 33,000  Level FlightAware
02:34AM 10.7840 -60.7320 144° Southeast 33,000  Level FlightAware
02:37AM 10.5114 -60.5912 153° Southeast  Level Estimated
02:38AM 10.4023 -60.5349 153° Southeast  Level Estimated
02:38AM 10.3300 -60.3890 153° Southeast 33,000  Level FlightAware
02:41AM 10.0988 -60.2707 153° Southeast  Level Estimated
02:42AM 9.9896 -60.2149 153° Southeast  Level Estimated
02:42AM 9.9220 -60.0810 153° Southeast 459 528 33,000  Level FlightAware
02:43AM 9.8803 -60.1591 153° Southeast  Level Estimated
02:43AM 9.8700 -60.0420 144° Southeast 459 528 33,000  Level FlightAware
02:44AM 9.8010 -59.9890 143° Southeast 459 528 33,000  Level FlightAware
02:44AM 9.7650 -59.9610 143° Southeast 459 528 33,000  Level FlightAware
02:46AM 9.6380 -59.8640 143° Southeast 459 528 33,000  Level FlightAware
02:47AM 9.5500 -59.7970 143° Southeast 459 528 33,000  Level FlightAware
02:47AM 9.4980 -59.7570 143° Southeast 459 528 33,000  Level FlightAware
02:48AM 9.4290 -59.7050 143° Southeast 459 528 33,000  Level FlightAware
02:49AM 9.3770 -59.6650 143° Southeast 459 528 33,000  Level FlightAware
02:49AM 9.3250 -59.6250 143° Southeast 459 528 33,000  Level FlightAware
02:50AM 9.2390 -59.5590 143° Southeast 459 528 33,000  Level FlightAware
02:51AM 9.1870 -59.5200 143° Southeast 459 528 33,000  Level FlightAware
02:52AM 9.1180 -59.4670 143° Southeast 459 528 33,000  Level FlightAware
02:54AM 8.9278 -59.3722 154° Southeast  Level Estimated
02:55AM 8.8181 -59.3176 154° Southeast  Level Estimated
02:56AM 8.7084 -59.2630 154° Southeast  Level Estimated
02:57AM 8.5986 -59.2084 154° Southeast  Level Estimated
02:58AM 8.4888 -59.1538 154° Southeast  Level Estimated
02:59AM 8.3791 -59.0993 154° Southeast  Level Estimated
03:00AM 8.2693 -59.0448 154° Southeast  Level Estimated
03:01AM 8.1595 -58.9904 154° Southeast  Level Estimated
03:02AM 8.0498 -58.9360 154° Southeast  Level Estimated
03:03AM 7.9400 -58.8816 154° Southeast  Level Estimated
03:04AM 7.8302 -58.8272 154° Southeast  Level Estimated
03:05AM 7.7204 -58.7729 154° Southeast  Level Estimated
03:06AM 7.6106 -58.7186 154° Southeast  Level Estimated
03:07AM 7.5007 -58.6643 154° Southeast  Level Estimated
03:08AM 7.3909 -58.6101 154° Southeast  Level Estimated
03:09AM 7.2811 -58.5558 154° Southeast  Level Estimated
03:10AM 7.1712 -58.5016 154° Southeast  Level Estimated
03:11AM 7.0614 -58.4475 154° Southeast  Level Estimated
03:12AM 6.9516 -58.3933 154° Southeast  Level Estimated
03:13AM 6.8417 -58.3392 154° Southeast  Level Estimated
03:14AM 6.7318 -58.2851 154° Southeast  Level Estimated
03:15AM 6.6220 -58.2310 154° Southeast  Level Estimated
03:16AM 6.5121 -58.1770 154° Southeast  Level Estimated
03:17AM 6.4022 -58.1230 154° Southeast  Level Estimated
03:18AM 6.2923 -58.0690 154° Southeast  Level Estimated
03:19AM 6.1824 -58.0150 154° Southeast  Level Estimated
03:20AM 6.0725 -57.9610 154° Southeast  Level Estimated
03:21AM 5.9626 -57.9071 154° Southeast  Level Estimated
03:22AM 5.8527 -57.8532 154° Southeast  Level Estimated
03:23AM 5.7428 -57.7993 154° Southeast  Level Estimated
03:24AM 5.6329 -57.7454 154° Southeast  Level Estimated
03:25AM 5.5230 -57.6916 154° Southeast  Level Estimated
03:26AM 5.4131 -57.6377 154° Southeast  Level Estimated
03:27AM 5.3031 -57.5839 154° Southeast  Level Estimated
03:28AM 5.1932 -57.5302 154° Southeast  Level Estimated
03:29AM 5.0832 -57.4764 154° Southeast  Level Estimated
03:30AM 4.9733 -57.4226 154° Southeast  Level Estimated
03:31AM 4.8633 -57.3689 154° Southeast  Level Estimated
03:32AM 4.7534 -57.3152 154° Southeast  Level Estimated
03:33AM 4.6434 -57.2615 154° Southeast  Level Estimated
03:34AM 4.5335 -57.2078 154° Southeast  Level Estimated
03:35AM 4.4235 -57.1541 154° Southeast  Level Estimated
03:36AM 4.3135 -57.1005 154° Southeast  Level Estimated
03:37AM 4.2036 -57.0468 154° Southeast  Level Estimated
03:38AM 4.0936 -56.9932 154° Southeast  Level Estimated
03:39AM 3.9836 -56.9396 154° Southeast  Level Estimated
03:40AM 3.8736 -56.8860 154° Southeast  Level Estimated
03:41AM 3.7636 -56.8324 154° Southeast  Level Estimated
03:42AM 3.6536 -56.7789 154° Southeast  Level Estimated
03:43AM 3.5436 -56.7253 154° Southeast  Level Estimated
03:44AM 3.4337 -56.6718 154° Southeast  Level Estimated
03:45AM 3.3236 -56.6183 154° Southeast  Level Estimated
03:46AM 3.2136 -56.5648 154° Southeast  Level Estimated
03:47AM 3.1036 -56.5112 154° Southeast  Level Estimated
03:48AM 2.9936 -56.4578 154° Southeast  Level Estimated
03:49AM 2.8836 -56.4043 154° Southeast  Level Estimated
03:50AM 2.7736 -56.3508 154° Southeast  Level Estimated
03:51AM 2.6628 -56.2970 154° Southeast  Level Estimated
03:52AM 2.5520 -56.2431 154° Southeast  Level Estimated
03:53AM 2.4412 -56.1893 154° Southeast  Level Estimated
03:54AM 2.3304 -56.1355 154° Southeast  Level Estimated
03:55AM 2.2196 -56.0817 154° Southeast  Level Estimated
03:56AM 2.1088 -56.0279 154° Southeast  Level Estimated
03:57AM 1.9980 -55.9741 154° Southeast  Level Estimated
03:58AM 1.8872 -55.9203 154° Southeast  Level Estimated
03:59AM 1.7764 -55.8666 154° Southeast  Level Estimated
04:00AM 1.6655 -55.8128 154° Southeast  Level Estimated
04:01AM 1.5547 -55.7590 154° Southeast  Level Estimated
04:02AM 1.4439 -55.7053 154° Southeast  Level Estimated
04:03AM 1.3331 -55.6515 154° Southeast  Level Estimated
04:04AM 1.2223 -55.5978 154° Southeast  Level Estimated
04:05AM 1.1114 -55.5440 154° Southeast  Level Estimated
04:06AM 1.0006 -55.4903 154° Southeast  Level Estimated
04:07AM 0.8898 -55.4366 154° Southeast  Level Estimated
04:08AM 0.7790 -55.3828 154° Southeast  Level Estimated
04:09AM 0.6682 -55.3291 154° Southeast  Level Estimated
04:10AM 0.5573 -55.2754 154° Southeast  Level Estimated
04:11AM 0.4465 -55.2217 154° Southeast  Level Estimated
04:12AM 0.3357 -55.1679 154° Southeast  Level Estimated
04:13AM 0.2248 -55.1142 154° Southeast  Level Estimated
04:14AM 0.1140 -55.0605 154° Southeast  Level Estimated
04:15AM 0.0032 -55.0068 154° Southeast  Level Estimated
04:16AM -0.1077 -54.9531 154° Southeast  Level Estimated
04:17AM -0.2185 -54.8993 154° Southeast  Level Estimated
04:18AM -0.3293 -54.8456 154° Southeast  Level Estimated
04:19AM -0.4401 -54.7919 154° Southeast  Level Estimated
04:20AM -0.5510 -54.7382 154° Southeast  Level Estimated
04:21AM -0.6618 -54.6845 154° Southeast  Level Estimated
04:22AM -0.7726 -54.6307 154° Southeast  Level Estimated
04:23AM -0.8835 -54.5770 154° Southeast  Level Estimated
04:24AM -0.9943 -54.5233 154° Southeast  Level Estimated
04:25AM -1.1051 -54.4695 154° Southeast  Level Estimated
04:26AM -1.2159 -54.4158 154° Southeast  Level Estimated
04:27AM -1.3267 -54.3620 154° Southeast  Level Estimated
04:28AM -1.4376 -54.3083 154° Southeast  Level Estimated
04:29AM -1.5484 -54.2545 154° Southeast  Level Estimated
04:30AM -1.6592 -54.2008 154° Southeast  Level Estimated
04:31AM -1.7700 -54.1470 154° Southeast  Level Estimated
04:32AM -1.8808 -54.0932 154° Southeast  Level Estimated
04:33AM -1.9916 -54.0395 154° Southeast  Level Estimated
04:34AM -2.1024 -53.9857 154° Southeast  Level Estimated
04:35AM -2.2133 -53.9319 154° Southeast  Level Estimated
04:36AM -2.3241 -53.8781 154° Southeast  Level Estimated
04:37AM -2.4349 -53.8243 154° Southeast  Level Estimated
04:38AM -2.5457 -53.7705 154° Southeast  Level Estimated
04:39AM -2.6565 -53.7166 154° Southeast  Level Estimated
04:40AM -2.7673 -53.6628 154° Southeast  Level Estimated
04:41AM -2.8781 -53.6089 154° Southeast  Level Estimated
04:42AM -2.9889 -53.5551 154° Southeast  Level Estimated
04:43AM -3.0996 -53.5012 154° Southeast  Level Estimated
04:44AM -3.2104 -53.4473 154° Southeast  Level Estimated
04:45AM -3.3212 -53.3934 154° Southeast  Level Estimated
04:46AM -3.4320 -53.3395 154° Southeast  Level Estimated
04:47AM -3.5428 -53.2856 154° Southeast  Level Estimated
04:48AM -3.6536 -53.2317 154° Southeast  Level Estimated
04:49AM -3.7643 -53.1777 154° Southeast  Level Estimated
04:50AM -3.8751 -53.1238 154° Southeast  Level Estimated
04:51AM -3.9859 -53.0698 154° Southeast  Level Estimated
04:52AM -4.0966 -53.0158 154° Southeast  Level Estimated
04:53AM -4.2074 -52.9618 154° Southeast  Level Estimated
04:54AM -4.3181 -52.9078 154° Southeast  Level Estimated
04:55AM -4.4289 -52.8538 154° Southeast  Level Estimated
04:56AM -4.5396 -52.7997 154° Southeast  Level Estimated
04:57AM -4.6504 -52.7456 154° Southeast  Level Estimated
04:58AM -4.7611 -52.6916 154° Southeast  Level Estimated
04:59AM -4.8719 -52.6375 154° Southeast  Level Estimated
05:00AM -4.9826 -52.5833 154° Southeast  Level Estimated
05:01AM -5.0933 -52.5292 154° Southeast  Level Estimated
05:02AM -5.2040 -52.4751 154° Southeast  Level Estimated
05:03AM -5.3148 -52.4209 154° Southeast  Level Estimated
05:04AM -5.4255 -52.3667 154° Southeast  Level Estimated
05:05AM -5.5362 -52.3125 154° Southeast  Level Estimated
05:06AM -5.6481 -52.2577 154° Southeast  Level Estimated
05:07AM -5.7600 -52.2028 154° Southeast  Level Estimated
05:08AM -5.8718 -52.1480 154° Southeast  Level Estimated
05:09AM -5.9837 -52.0931 154° Southeast  Level Estimated
05:10AM -6.0956 -52.0382 154° Southeast  Level Estimated
05:11AM -6.2074 -51.9832 154° Southeast  Level Estimated
05:12AM -6.3193 -51.9283 154° Southeast  Level Estimated
05:13AM -6.4312 -51.8733 154° Southeast  Level Estimated
05:14AM -6.5430 -51.8183 154° Southeast  Level Estimated
05:15AM -6.6549 -51.7633 154° Southeast  Level Estimated
05:16AM -6.7667 -51.7082 154° Southeast  Level Estimated
05:17AM -6.8785 -51.6532 154° Southeast  Level Estimated
05:18AM -6.9904 -51.5981 154° Southeast  Level Estimated
05:19AM -7.1022 -51.5429 154° Southeast  Level Estimated
05:20AM -7.2140 -51.4878 154° Southeast  Level Estimated
05:21AM -7.3258 -51.4326 154° Southeast  Level Estimated
05:22AM -7.4376 -51.3774 154° Southeast  Level Estimated
05:23AM -7.5494 -51.3222 154° Southeast  Level Estimated
05:24AM -7.6612 -51.2669 154° Southeast  Level Estimated
05:25AM -7.7730 -51.2116 154° Southeast  Level Estimated
05:26AM -7.8847 -51.1563 154° Southeast  Level Estimated
05:27AM -7.9965 -51.1009 154° Southeast  Level Estimated
05:28AM -8.1082 -51.0456 154° Southeast  Level Estimated
05:29AM -8.2200 -50.9901 154° Southeast  Level Estimated
05:30AM -8.3317 -50.9347 154° Southeast  Level Estimated
05:31AM -8.4435 -50.8792 154° Southeast  Level Estimated
05:32AM -8.5552 -50.8237 154° Southeast  Level Estimated
05:32AM -10.1290 -50.5940 154° Southeast 454 522 33,000  Level FlightAware
05:33AM -8.6669 -50.7682 154° Southeast  Level Estimated
05:33AM -10.1440 -50.5880 159° South 454 522 33,000  Level FlightAware
05:33AM -10.2250 -50.5530 157° South 454 522 33,000  Level FlightAware
05:34AM -10.2840 -50.5280 157° South 454 522 33,000  Level FlightAware
05:34AM -10.0830 -50.6140 337° Northwest 33,000  Level FlightAware
05:36AM -10.5820 -50.4010 157° South 456 525 33,000  Level FlightAware
05:36AM -10.6480 -50.3730 157° South 456 525 33,000  Level FlightAware
05:37AM -10.7630 -50.3240 157° South 456 525 33,000  Level FlightAware
05:38AM -10.7630 -50.3240 157° South 455 524 33,000  Level FlightAware
05:39AM -10.7660 -50.3220 147° Southeast 454 522 33,000  Level FlightAware
05:39AM -11.0190 -50.2140 157° South 453 521 33,000  Level FlightAware
05:40AM -11.1220 -50.1700 157° South 454 522 33,000  Level FlightAware
05:41AM -11.1900 -50.1400 157° South 453 521 33,000  Level FlightAware
05:42AM -11.3500 -50.0710 157° South 452 520 33,000  Level FlightAware
05:43AM -11.4500 -50.0280 157° South 452 520 33,000  Level FlightAware
05:44AM -11.5330 -49.9920 157° South 452 520 33,000  Level FlightAware
05:45AM -11.6060 -49.9610 157° South 452 520 33,000  Level FlightAware
05:45AM -11.6790 -49.9290 157° South 452 520 33,000  Level FlightAware
05:46AM -11.7590 -49.8940 157° South 451 519 33,000  Level FlightAware
05:47AM -11.8310 -49.8620 156° South 450 518 33,000  Level FlightAware
05:47AM -11.9030 -49.8310 157° South 449 517 33,000  Level FlightAware
05:48AM -11.9910 -49.7930 157° South 448 516 33,000  Level FlightAware
05:49AM -12.0420 -49.7700 156° South 448 516 33,000  Level FlightAware
05:49AM -12.0970 -49.7450 156° South 448 516 33,000  Level FlightAware
05:50AM -12.1000 -49.7440 162° South 448 516 33,000  Level FlightAware
05:51AM -12.3380 -49.6400 157° South 449 517 33,000  Level FlightAware
05:52AM -12.3960 -49.6140 156° South 449 517 33,000  Level FlightAware
05:52AM -12.3330 -49.6420 337° Northwest 449 517 33,000  Level FlightAware
05:53AM -12.5740 -49.5370 157° South 449 517 33,000  Level FlightAware
05:54AM -12.6510 -49.5020 156° South 449 517 33,000  Level FlightAware
05:54AM -12.7060 -49.4770 156° South 449 517 33,000  Level FlightAware
05:55AM -12.5330 -49.5550 336° Northwest 33,000  Level FlightAware
05:58AM -12.8004 -49.4003 151° Southeast  Level Estimated
05:59AM -12.9088 -49.3374 151° Southeast  Level Estimated
06:00AM -13.0171 -49.2746 151° Southeast  Level Estimated
06:01AM -13.1255 -49.2116 151° Southeast  Level Estimated
06:02AM -13.2338 -49.1486 150° Southeast  Level Estimated
06:03AM -13.3421 -49.0856 150° Southeast  Level Estimated
06:03AM -13.6620 -49.0490 150° Southeast 434 499 33,000  Level FlightAware
06:03AM -13.7370 -49.0150 156° South 432 497 33,000  Level FlightAware
06:04AM -13.8620 -48.9580 156° South 432 497 33,000  Level FlightAware
06:05AM -13.9400 -48.9210 155° Southeast 431 496 33,000  Level FlightAware
06:06AM -13.9960 -48.8970 157° South 431 496 33,000  Level FlightAware
06:06AM -14.0920 -48.8530 156° South 431 496 33,000  Level FlightAware
06:07AM -14.1710 -48.8170 156° South 431 496 33,000  Level FlightAware
06:08AM -14.2490 -48.7810 156° South 429 494 33,000  Level FlightAware
06:09AM -14.3210 -48.7480 156° South 430 495 33,000  Level FlightAware
06:09AM -14.3950 -48.7130 155° Southeast 429 494 33,000  Level FlightAware
06:10AM -14.4750 -48.6760 156° South 428 493 33,000  Level FlightAware
06:10AM -14.5190 -48.6560 156° South 429 494 33,000  Level FlightAware
06:11AM -14.6220 -48.6080 156° South 428 493 33,000  Level FlightAware
06:12AM -14.6940 -48.5750 156° South 426 490 33,000  Level FlightAware
06:13AM -14.7660 -48.5410 155° Southeast 426 490 33,000  Level FlightAware
06:14AM -14.8570 -48.4760 145° Southeast 433 498 33,000  Level FlightAware
06:14AM -14.9110 -48.4310 141° Southeast 433 498 33,000  Level FlightAware
06:16AM -15.1090 -48.2570 140° Southeast 436 502 33,000  Level FlightAware
06:17AM -15.1730 -48.2010 140° Southeast 436 502 33,000  Level FlightAware
06:18AM -15.2350 -48.1460 139° Southeast 438 504 33,000  Level FlightAware
06:18AM -15.3010 -48.0880 140° Southeast 439 505 33,000  Level FlightAware
06:19AM -15.3680 -48.0280 139° Southeast 440 506 33,000  Level FlightAware
06:20AM -15.4340 -47.9700 140° Southeast 441 507 33,000  Level FlightAware
06:20AM -15.4870 -47.9220 139° Southeast 441 507 33,000  Level FlightAware
06:21AM -15.5520 -47.8650 140° Southeast 441 507 33,000  Level FlightAware
06:22AM -15.6110 -47.8130 140° Southeast 441 507 33,000  Level FlightAware
06:23AM -15.7090 -47.7320 141° Southeast 438 504 33,000  Level FlightAware
06:23AM -15.7730 -47.6840 144° Southeast 438 504 33,000  Level FlightAware
06:24AM -15.8420 -47.6330 145° Southeast 438 504 33,000  Level FlightAware
06:25AM -15.9160 -47.5770 144° Southeast 439 505 33,000  Level FlightAware
06:25AM -15.9810 -47.5290 145° Southeast 441 507 33,000  Level FlightAware
06:26AM -16.0540 -47.4750 145° Southeast 439 505 33,000  Level FlightAware
06:27AM -16.1270 -47.4210 145° Southeast 438 504 33,000  Level FlightAware
06:28AM -16.1920 -47.3720 144° Southeast 436 502 33,000  Level FlightAware
06:28AM -16.2480 -47.3300 144° Southeast 436 502 33,000  Level FlightAware
06:29AM -16.3150 -47.2790 144° Southeast 436 502 33,000  Level FlightAware
06:30AM -16.3650 -47.2420 145° Southeast 436 502 33,000  Level FlightAware
06:30AM -16.4160 -47.2030 144° Southeast 436 502 33,000  Level FlightAware
06:31AM -16.4830 -47.1520 144° Southeast 436 502 33,000  Level FlightAware
06:32AM -16.5350 -47.1120 144° Southeast 436 502 33,000  Level FlightAware
06:32AM -16.6020 -47.0620 144° Southeast 436 502 33,000  Level FlightAware
06:33AM -16.6520 -47.0240 144° Southeast 436 502 33,000  Level FlightAware
06:34AM -16.7030 -46.9850 144° Southeast 436 502 33,000  Level FlightAware
06:34AM -16.8960 -46.9410 168° South 429 494 33,000  Level FlightAware
06:35AM -16.9640 -46.9010 151° Southeast 429 494 33,000  Level FlightAware
06:36AM -17.0210 -46.8670 150° Southeast 429 494 33,000  Level FlightAware
06:36AM -17.1070 -46.8180 151° Southeast 430 495 33,000  Level FlightAware
06:37AM -17.1680 -46.7830 151° Southeast 432 497 33,000  Level FlightAware
06:38AM -17.2540 -46.7330 151° Southeast 432 497 33,000  Level FlightAware
06:38AM -17.3240 -46.6920 151° Southeast 432 497 33,000  Level FlightAware
06:39AM -17.3970 -46.6500 151° Southeast 433 498 33,000  Level FlightAware
06:40AM -17.4620 -46.6100 150° Southeast 433 498 33,000  Level FlightAware
06:41AM -17.5170 -46.5770 150° Southeast 433 498 33,000  Level FlightAware
06:41AM -17.5730 -46.5430 150° Southeast 433 498 33,000  Level FlightAware
06:42AM -17.6610 -46.4900 150° Southeast 433 498 33,000  Level FlightAware
06:43AM -17.7150 -46.4570 150° Southeast 433 498 33,000  Level FlightAware
06:44AM -17.7850 -46.4150 150° Southeast 433 498 33,000  Level FlightAware
06:44AM -17.8400 -46.3810 150° Southeast 433 498 33,000  Level FlightAware
06:45AM -17.9110 -46.3390 151° Southeast 433 498 33,000  Level FlightAware
06:46AM -17.9640 -46.3060 149° Southeast 433 498 33,000  Level FlightAware
06:46AM -18.0350 -46.2630 150° Southeast 433 498 33,000  Level FlightAware
06:47AM -18.0880 -46.2310 150° Southeast 433 498 33,000  Level FlightAware
06:48AM -18.3400 -46.0940 153° Southeast 441 507 33,000  Level FlightAware
06:49AM -18.3950 -46.0600 150° Southeast 441 507 33,000  Level FlightAware
06:50AM -18.4670 -46.0160 150° Southeast 441 507 33,000  Level FlightAware
06:50AM -18.5610 -45.9650 153° Southeast 446 513 33,000  Level FlightAware
06:51AM -18.6420 -45.9180 151° Southeast 447 514 33,000  Level FlightAware
06:52AM -18.7040 -45.8810 151° Southeast 448 516 33,000  Level FlightAware
06:52AM -18.7900 -45.8300 151° Southeast 448 516 33,000  Level FlightAware
06:53AM -18.8600 -45.7880 150° Southeast 433 498 33,000  Level FlightAware
06:54AM -18.9340 -45.7450 151° Southeast 425 489 33,000  Level FlightAware
06:54AM -19.0070 -45.7020 151° Southeast 423 487 33,000  Level FlightAware
06:55AM -19.0760 -45.6610 151° Southeast 422 486 33,000  Level FlightAware
06:56AM -19.1410 -45.6230 151° Southeast 421 484 33,000  Level FlightAware
06:56AM -19.1910 -45.5930 150° Southeast 421 484 33,000  Level FlightAware
06:57AM -19.2570 -45.5520 150° Southeast 421 484 33,000  Level FlightAware
06:58AM -19.3260 -45.5100 150° Southeast 421 484 33,000  Level FlightAware
06:58AM -19.3770 -45.4790 150° Southeast 421 484 33,000  Level FlightAware
06:59AM -19.4460 -45.4360 150° Southeast 421 484 33,000  Level FlightAware
07:00AM -19.5050 -45.4000 150° Southeast 421 484 33,000  Level FlightAware
07:01AM -19.5750 -45.3570 150° Southeast 421 484 33,000  Level FlightAware
07:01AM -19.6410 -45.3170 150° Southeast 421 484 33,000  Level FlightAware
07:02AM -19.6940 -45.2840 150° Southeast 421 484 33,000 1,320 Level FlightAware
07:02AM -19.7650 -45.2120 136° Southeast 35,000 2,280 Climbing FlightAware
07:03AM -19.8230 -45.1770 150° Southeast 400 460 35,000  Level FlightAware
07:04AM -19.9040 -45.1280 150° Southeast 399 459 35,000  Level FlightAware
07:05AM -19.9720 -45.0870 150° Southeast 399 459 35,000  Level FlightAware
07:05AM -20.0530 -45.0380 150° Southeast 400 460 35,000  Level FlightAware
07:06AM -20.1220 -44.9960 150° Southeast 401 461 35,000  Level FlightAware
07:07AM -20.1800 -44.9610 150° Southeast 403 464 35,000  Level FlightAware
07:07AM -20.2400 -44.9250 151° Southeast 403 464 35,000  Level FlightAware
07:08AM -20.3110 -44.8820 150° Southeast 404 465 35,000  Level FlightAware
07:09AM -20.3790 -44.8400 150° Southeast 406 467 35,000  Level FlightAware
07:09AM -20.4400 -44.8040 151° Southeast 408 470 35,000  Level FlightAware
07:11AM -20.6270 -44.6890 150° Southeast 412 474 35,000  Level FlightAware
07:12AM -20.7070 -44.6400 150° Southeast 414 476 35,000 -240 Level FlightAware
07:13AM -20.7860 -44.5920 150° Southeast 406 467 34,700 -960 Descending FlightAware
07:13AM -20.8500 -44.5520 150° Southeast 413 475 33,700 -1,500 Descending FlightAware
07:14AM -20.9000 -44.5210 150° Southeast 424 488 32,800 -1,440 Descending FlightAware
07:15AM -20.9590 -44.4850 150° Southeast 432 497 31,900 -1,200 Descending FlightAware
07:16AM -21.0730 -44.4140 150° Southeast 30,500 -1,080 Descending FlightAware
07:16AM -21.1580 -44.3610 150° Southeast 428 493 30,000 -1,200 Descending FlightAware
07:17AM -21.2630 -44.2950 150° Southeast 28,300 -1,500 Descending FlightAware
07:18AM -21.3340 -44.2500 149° Southeast 427 491 27,600 -960 Descending FlightAware
07:19AM -21.4090 -44.2020 149° Southeast 408 470 27,000 -1,200 Descending FlightAware
07:20AM -21.4530 -44.1750 150° Southeast 372 428 25,600 -1,500 Descending FlightAware
07:21AM -21.5270 -44.1290 150° Southeast 359 413 24,300 -1,620 Descending FlightAware
07:21AM -21.6050 -44.0790 149° Southeast 359 413 22,800 -1,620 Descending FlightAware
07:22AM -21.6580 -44.0450 149° Southeast 355 409 22,000 -1,140 Descending FlightAware
07:23AM -21.7000 -44.0180 149° Southeast 345 397 21,400 -1,200 Descending FlightAware
07:23AM -21.7590 -43.9810 150° Southeast 335 386 20,500 -1,440 Descending FlightAware
07:24AM -21.8130 -43.9460 149° Southeast 333 383 19,400 -1,200 Descending FlightAware
07:25AM -21.8590 -43.9160 149° Southeast 325 374 18,800 -960 Descending FlightAware
07:26AM -21.9110 -43.8820 149° Southeast 308 354 18,100 -1,200 Descending FlightAware
07:26AM -21.9570 -43.8530 150° Southeast 300 345 17,200 -1,500 Descending FlightAware
07:27AM -22.0040 -43.8220 149° Southeast 286 329 16,200 -1,320 Descending FlightAware
07:27AM -22.0640 -43.7830 149° Southeast 273 314 15,500 -1,080 Descending FlightAware
07:28AM -22.1100 -43.7540 150° Southeast 271 312 14,600 -600 Descending FlightAware
07:29AM -22.1460 -43.7290 147° Southeast 271 312 14,600  Level FlightAware
07:30AM -22.1960 -43.6960 149° Southeast 271 312 14,600 -1,440 Level FlightAware
07:33AM -22.4312 -43.4514 150° Southeast  Level FlightAware Approximate
07:34AM -22.5420 -43.3879 152° Southeast  Level FlightAware Approximate
07:34AM -22.5100 -43.6650 152° Southeast 215 247 7,500  Level FlightAware
07:35AM -22.5320 -43.6710 194° South 213 245 7,100 -720 Descending FlightAware
07:35AM -22.5570 -43.6790 196° South 212 244 6,900 -600 Descending FlightAware
07:36AM -22.5920 -43.6700 167° South 212 244 6,500 -780 Descending FlightAware
07:36AM -22.6060 -43.6480 125° Southeast 212 244 6,100 -840 Descending FlightAware
07:36AM -22.6160 -43.6310 123° Southeast 209 241 5,900 -720 Descending FlightAware
07:37AM -22.6290 -43.6090 123° Southeast 204 235 5,600 -840 Descending FlightAware
07:37AM -22.6390 -43.5910 121° Southeast 206 237 5,300 -840 Descending FlightAware
07:38AM -22.6490 -43.5730 121° Southeast 208 239 5,000 -1,140 Descending FlightAware
07:38AM -22.6640 -43.5430 118° Southeast 204 235 4,300 -1,200 Descending FlightAware
07:39AM -22.6690 -43.5150 101° East 203 234 3,800 -1,140 Descending FlightAware
07:39AM -22.6720 -43.4880 97° East 213 245 3,300 -1,200 Descending FlightAware
07:39AM -22.6740 -43.4630 95° East 209 241 2,800 -600 Descending FlightAware
07:40AM -22.6770 -43.4370 97° East 209 241 2,800 -1,080 Level FlightAware
07:40AM -22.6970 -43.4200 142° Southeast 186 214 2,000 -1,740 Descending FlightAware
07:41AM -22.7110 -43.4000 127° Southeast 166 191 1,500 -900 Descending FlightAware
07:41AM -22.7220 -43.3830 125° Southeast 162 186 1,200 -780 Descending FlightAware
07:42AM -22.7350 -43.3640 127° Southeast 162 186 800 -900 Descending FlightAware
07:42AM -22.7460 -43.3470 125° Southeast 164 189 400 -840 Descending FlightAware
07:42AM -22.7580 -43.3300 127° Southeast 160 184 100 -720 Descending FlightAware
07:43AM -22.7680 -43.3140 124° Southeast 160 184 -240 Descending FlightAware